Airport View

Enter AWOS ICAO identifier for current METAR.

ex. KFNL

KBUF 101454Z 24013KT 10SM FEW035 FEW260 29/20 A3003 RMK AO2 SLP165 T02890200 53002 $

10 Aug 2020 15:29

Phone: 716-635-0532

Other Area AWOS: KIAG - CWPC - CYSN - KGVQ

TAF AMD KBUF 101412Z 1014/1112 22010KT P6SM SCT250 FM101600 23014G20KT P6SM SCT250 FM102300 22009KT P6SM SCT250 FM110300 20007KT P6SM SCT040 SCT250